createdAt,value
2023-01-30T00:00:52.917Z,27.77
2023-01-30T00:03:19.863Z,27.15
2023-01-30T00:05:46.361Z,27.60
2023-01-30T00:08:12.863Z,23.08
2023-01-30T00:10:39.426Z,24.75
2023-01-30T00:13:06.132Z,25.30
2023-01-30T00:15:32.613Z,27.42
2023-01-30T00:17:59.075Z,25.58
2023-01-30T00:20:25.661Z,26.50
2023-01-30T00:23:00.484Z,23.70
2023-01-30T00:25:28.462Z,25.00
2023-01-30T00:27:55.194Z,26.20
2023-01-30T00:30:22.530Z,28.90
2023-01-30T00:32:54.556Z,23.60
2023-01-30T00:35:21.282Z,23.55
2023-01-30T00:37:47.876Z,28.13
2023-01-30T00:40:15.058Z,24.10
2023-01-30T00:43:00.185Z,30.23
2023-01-30T00:45:45.091Z,26.23
2023-01-30T00:48:11.629Z,24.38
2023-01-30T00:50:44.118Z,23.87
2023-01-30T00:53:13.632Z,23.05
2023-01-30T00:55:40.853Z,27.27
2023-01-30T00:58:07.436Z,27.48
2023-01-30T01:00:34.073Z,26.70
2023-01-30T01:03:01.244Z,27.20
2023-01-30T01:05:28.614Z,25.10
2023-01-30T01:07:55.477Z,24.17
2023-01-30T01:10:23.434Z,27.98
2023-01-30T01:12:52.292Z,22.75
2023-01-30T01:15:20.198Z,26.43
2023-01-30T01:17:49.070Z,28.02
2023-01-30T01:20:17.042Z,24.70
2023-01-30T01:22:43.923Z,25.02
2023-01-30T01:25:11.185Z,28.58
2023-01-30T01:27:39.450Z,23.93
2023-01-30T01:30:06.900Z,23.00
2023-01-30T01:32:33.463Z,26.02
2023-01-30T01:35:01.529Z,23.45
2023-01-30T01:37:28.103Z,23.30
2023-01-30T01:40:13.692Z,22.47
2023-01-30T01:42:40.715Z,27.70
2023-01-30T01:45:12.881Z,23.15
2023-01-30T01:48:00.563Z,23.17
2023-01-30T01:50:37.817Z,21.05
2023-01-30T01:53:04.992Z,23.80
2023-01-30T01:55:31.649Z,19.73
2023-01-30T01:58:05.631Z,20.50
2023-01-30T02:00:32.332Z,19.67
2023-01-30T02:03:01.698Z,18.35
2023-01-30T02:05:32.679Z,18.87
2023-01-30T02:08:09.081Z,18.13
2023-01-30T02:10:46.068Z,18.73
2023-01-30T02:13:12.604Z,18.90
2023-01-30T02:15:39.471Z,19.13
2023-01-30T02:18:07.172Z,18.40
2023-01-30T02:20:55.504Z,17.58
2023-01-30T02:23:51.787Z,18.77
2023-01-30T02:26:43.158Z,18.13
2023-01-30T02:29:19.273Z,18.88
2023-01-30T02:32:08.679Z,16.23
2023-01-30T02:34:38.182Z,18.33
2023-01-30T02:37:17.480Z,17.52
2023-01-30T02:40:01.643Z,16.27
2023-01-30T02:42:57.631Z,16.02
2023-01-30T02:45:47.744Z,15.23
2023-01-30T02:48:21.401Z,13.57
2023-01-30T02:51:01.079Z,15.32
2023-01-30T02:53:34.887Z,13.18
2023-01-30T02:56:02.362Z,12.43
2023-01-30T02:58:34.727Z,13.83
2023-01-30T03:01:16.649Z,13.75
2023-01-30T03:03:58.793Z,13.93
2023-01-30T03:06:53.691Z,14.18
2023-01-30T03:09:41.729Z,12.35
2023-01-30T03:12:11.043Z,13.13
2023-01-30T03:14:56.367Z,13.75
2023-01-30T03:17:26.811Z,12.32
2023-01-30T03:19:55.125Z,13.68
2023-01-30T03:22:22.560Z,10.98
2023-01-30T03:24:53.248Z,10.80
2023-01-30T03:27:21.604Z,10.43
2023-01-30T03:29:48.809Z,11.15
2023-01-30T03:32:15.503Z,10.55
2023-01-30T03:34:42.577Z,9.05
2023-01-30T03:37:09.995Z,8.80
2023-01-30T03:39:36.816Z,8.85
2023-01-30T03:42:05.333Z,8.27
2023-01-30T03:44:31.970Z,7.97
2023-01-30T03:46:58.476Z,8.32
2023-01-30T03:49:26.060Z,8.00
2023-01-30T03:51:52.786Z,8.13
2023-01-30T03:54:19.399Z,8.13
2023-01-30T03:56:46.836Z,7.25
2023-01-30T03:59:13.458Z,6.45
2023-01-30T04:01:47.743Z,6.13
2023-01-30T04:04:14.611Z,5.93
2023-01-30T04:06:42.013Z,6.70
2023-01-30T04:09:08.627Z,6.50
2023-01-30T04:11:45.189Z,6.72
2023-01-30T04:14:12.170Z,6.90
2023-01-30T04:16:53.685Z,5.68
2023-01-30T04:19:50.079Z,5.90
2023-01-30T04:22:17.288Z,6.32
2023-01-30T04:24:43.954Z,6.60
2023-01-30T04:27:10.692Z,6.03
2023-01-30T04:29:47.309Z,5.72
2023-01-30T04:32:13.964Z,6.85
2023-01-30T04:34:40.575Z,7.00
2023-01-30T04:37:07.130Z,6.40
2023-01-30T04:39:33.708Z,6.20
2023-01-30T04:42:00.267Z,6.10
2023-01-30T04:44:27.441Z,5.95
2023-01-30T04:47:11.270Z,6.95
2023-01-30T04:49:37.857Z,6.22
2023-01-30T04:52:06.484Z,6.60
2023-01-30T04:54:33.018Z,5.97
2023-01-30T04:56:59.627Z,6.28
2023-01-30T04:59:26.294Z,5.88
2023-01-30T05:01:54.664Z,6.53
2023-01-30T05:04:21.126Z,5.73
2023-01-30T05:06:47.623Z,6.47
2023-01-30T05:09:14.149Z,6.25
2023-01-30T05:11:40.726Z,7.63
2023-01-30T05:14:07.259Z,5.50
2023-01-30T05:16:33.749Z,4.70
2023-01-30T05:19:00.215Z,5.18
2023-01-30T05:21:28.696Z,4.85
2023-01-30T05:23:56.465Z,4.60
2023-01-30T05:26:23.579Z,5.65
2023-01-30T05:28:55.301Z,5.03
2023-01-30T05:31:22.306Z,5.60
2023-01-30T05:33:50.410Z,4.90
2023-01-30T05:36:18.875Z,5.43
2023-01-30T05:38:46.352Z,5.05
2023-01-30T05:41:14.578Z,4.77
2023-01-30T05:43:41.728Z,4.68
2023-01-30T05:46:10.609Z,3.78
2023-01-30T05:48:37.343Z,3.45
2023-01-30T05:51:03.836Z,2.63
2023-01-30T05:53:34.505Z,2.40
2023-01-30T05:56:05.738Z,2.28
2023-01-30T05:58:33.081Z,2.53
2023-01-30T06:01:04.378Z,2.30
2023-01-30T06:03:31.425Z,2.05
2023-01-30T06:05:58.192Z,3.17
2023-01-30T06:08:24.747Z,1.60
2023-01-30T06:10:51.270Z,2.28
2023-01-30T06:13:17.853Z,2.58
2023-01-30T06:15:44.635Z,2.58
2023-01-30T06:18:11.133Z,1.67
2023-01-30T06:20:38.488Z,1.55
2023-01-30T06:23:05.043Z,1.58
2023-01-30T06:25:31.568Z,2.15
2023-01-30T06:27:58.165Z,1.92
2023-01-30T06:30:24.688Z,1.90
2023-01-30T06:32:51.828Z,2.20
2023-01-30T06:35:18.963Z,1.73
2023-01-30T06:37:45.842Z,1.90
2023-01-30T06:40:12.733Z,1.58
2023-01-30T06:42:39.177Z,1.40
2023-01-30T06:45:06.216Z,2.55
2023-01-30T06:47:32.683Z,1.55
2023-01-30T06:49:59.204Z,2.05
2023-01-30T06:52:25.686Z,2.47
2023-01-30T06:54:52.111Z,2.53
2023-01-30T06:57:18.660Z,1.60
2023-01-30T06:59:45.168Z,1.73
2023-01-30T07:02:13.286Z,1.63
2023-01-30T07:04:41.509Z,1.90
2023-01-30T07:07:07.959Z,1.50
2023-01-30T07:09:34.472Z,1.35
2023-01-30T07:12:00.957Z,1.73
2023-01-30T07:14:27.438Z,2.13
2023-01-30T07:16:54.019Z,1.20
2023-01-30T07:19:20.498Z,1.83
2023-01-30T07:21:47.014Z,1.27
2023-01-30T07:24:13.625Z,1.20
2023-01-30T07:26:40.715Z,1.40
2023-01-30T07:29:07.205Z,1.45
2023-01-30T07:31:33.668Z,1.27
2023-01-30T07:34:00.211Z,2.33
2023-01-30T07:36:26.761Z,1.27
2023-01-30T07:38:53.269Z,1.70
2023-01-30T07:41:19.845Z,1.45
2023-01-30T07:43:48.840Z,1.33
2023-01-30T07:46:15.341Z,1.95
2023-01-30T07:48:44.380Z,1.83
2023-01-30T07:51:10.906Z,1.40
2023-01-30T07:53:37.431Z,1.52
2023-01-30T07:56:11.394Z,2.07
2023-01-30T07:58:37.910Z,3.15
2023-01-30T08:01:04.514Z,1.80
2023-01-30T08:03:31.206Z,2.72
2023-01-30T08:05:57.713Z,2.08
2023-01-30T08:08:24.203Z,2.17
2023-01-30T08:10:50.830Z,1.95
2023-01-30T08:13:17.425Z,2.05
2023-01-30T08:15:44.519Z,2.15
2023-01-30T08:18:11.404Z,1.98
2023-01-30T08:20:38.014Z,1.90
2023-01-30T08:23:04.712Z,2.00
2023-01-30T08:25:31.360Z,1.80
2023-01-30T08:28:00.291Z,1.98
2023-01-30T08:30:27.786Z,2.53
2023-01-30T08:32:54.386Z,1.70
2023-01-30T08:35:20.867Z,1.83
2023-01-30T08:37:47.495Z,1.58
2023-01-30T08:40:14.439Z,2.17
2023-01-30T08:42:44.044Z,1.85
2023-01-30T08:45:11.020Z,1.70
2023-01-30T08:47:37.617Z,1.75
2023-01-30T08:50:05.200Z,1.50
2023-01-30T08:52:34.479Z,2.75
2023-01-30T08:55:00.995Z,1.63
2023-01-30T08:57:27.511Z,1.90
2023-01-30T08:59:54.054Z,1.67
2023-01-30T09:02:20.628Z,1.60
2023-01-30T09:04:47.289Z,2.15
2023-01-30T09:07:13.805Z,1.38
2023-01-30T09:09:40.249Z,1.47
2023-01-30T09:12:07.065Z,1.70
2023-01-30T09:14:33.625Z,1.42
2023-01-30T09:17:00.231Z,1.45
2023-01-30T09:19:28.313Z,2.72
2023-01-30T09:21:55.906Z,2.07
2023-01-30T09:24:27.013Z,1.58
2023-01-30T09:26:59.118Z,2.13
2023-01-30T09:29:26.815Z,2.15
2023-01-30T09:31:53.668Z,1.98
2023-01-30T09:34:20.168Z,2.27
2023-01-30T09:36:47.148Z,1.42
2023-01-30T09:39:13.659Z,2.30
2023-01-30T09:42:01.752Z,1.90
2023-01-30T09:44:34.253Z,1.60
2023-01-30T09:47:11.700Z,2.50
2023-01-30T09:50:08.833Z,2.25
2023-01-30T09:53:02.917Z,2.03
2023-01-30T09:55:32.543Z,1.60
2023-01-30T09:58:00.544Z,2.17
2023-01-30T10:00:44.013Z,1.67
2023-01-30T10:03:23.450Z,1.88
2023-01-30T10:05:54.773Z,2.10
2023-01-30T10:08:45.922Z,2.13
2023-01-30T10:11:26.841Z,1.85
2023-01-30T10:14:14.874Z,1.60
2023-01-30T10:16:55.752Z,2.78
2023-01-30T10:19:35.847Z,2.33
2023-01-30T10:22:11.039Z,2.17
2023-01-30T10:24:55.881Z,1.52
2023-01-30T10:27:23.856Z,1.47
2023-01-30T10:29:57.098Z,1.42
2023-01-30T10:32:35.336Z,1.30
2023-01-30T10:35:15.855Z,1.70
2023-01-30T10:37:46.021Z,1.58
2023-01-30T10:40:35.787Z,2.20
2023-01-30T10:43:25.883Z,1.80
2023-01-30T10:46:10.575Z,1.42
2023-01-30T10:49:01.712Z,1.80
2023-01-30T10:51:41.493Z,1.42
2023-01-30T10:54:29.705Z,1.47
2023-01-30T10:57:19.096Z,1.33
2023-01-30T10:59:56.113Z,0.82
2023-01-30T11:02:35.782Z,2.00
2023-01-30T11:05:12.964Z,1.65
2023-01-30T11:07:40.606Z,1.83
2023-01-30T11:10:16.213Z,1.83
2023-01-30T11:12:42.717Z,1.90
2023-01-30T11:15:10.186Z,1.55
2023-01-30T11:17:39.820Z,1.73
2023-01-30T11:20:16.497Z,2.50
2023-01-30T11:22:47.522Z,1.80
2023-01-30T11:25:21.699Z,2.00
2023-01-30T11:27:59.787Z,2.58
2023-01-30T11:30:49.090Z,1.80
2023-01-30T11:33:17.912Z,1.50
2023-01-30T11:35:54.267Z,2.53
2023-01-30T11:38:35.876Z,1.52
2023-01-30T11:41:22.022Z,1.35
2023-01-30T11:43:48.698Z,1.90
2023-01-30T11:46:19.837Z,1.67
2023-01-30T11:49:02.037Z,1.90
2023-01-30T11:51:44.371Z,2.50
2023-01-30T11:54:18.263Z,3.05
2023-01-30T11:56:53.098Z,2.40
2023-01-30T11:59:37.190Z,1.77
2023-01-30T12:02:14.124Z,2.13
2023-01-30T12:04:45.185Z,1.75
2023-01-30T12:07:25.145Z,2.22
2023-01-30T12:09:54.132Z,2.28
2023-01-30T12:12:28.949Z,2.20
2023-01-30T12:15:23.460Z,2.08
2023-01-30T12:17:52.982Z,2.75
2023-01-30T12:20:32.707Z,2.92
2023-01-30T12:23:12.715Z,2.28
2023-01-30T12:25:44.785Z,1.97
2023-01-30T12:28:20.249Z,2.35
2023-01-30T12:30:55.035Z,2.20
2023-01-30T12:33:22.026Z,2.05
2023-01-30T12:36:16.392Z,1.73
2023-01-30T12:39:29.871Z,1.30
2023-01-30T12:45:23.428Z,2.20
2023-01-30T12:48:12.077Z,2.13
2023-01-30T12:51:15.721Z,2.08
2023-01-30T12:54:16.038Z,1.63
2023-01-30T12:56:46.343Z,2.00
2023-01-30T12:59:51.802Z,2.47
2023-01-30T13:02:30.797Z,2.03
2023-01-30T13:05:15.300Z,1.77
2023-01-30T13:08:03.007Z,1.87
2023-01-30T13:10:51.467Z,3.42
2023-01-30T13:13:39.312Z,2.15
2023-01-30T13:16:25.557Z,2.50
2023-01-30T13:18:57.664Z,2.00
2023-01-30T13:21:35.403Z,1.67
2023-01-30T13:24:25.456Z,2.45
2023-01-30T13:26:53.572Z,2.13
2023-01-30T13:29:39.639Z,2.72
2023-01-30T13:32:15.430Z,2.55
2023-01-30T13:34:46.194Z,2.33
2023-01-30T13:37:15.738Z,1.73
2023-01-30T13:39:48.813Z,1.58
2023-01-30T13:42:41.608Z,2.53
2023-01-30T13:45:29.436Z,1.83
2023-01-30T13:48:10.129Z,2.50
2023-01-30T13:51:07.545Z,2.13
2023-01-30T13:54:11.403Z,1.95
2023-01-30T13:56:43.380Z,1.33
2023-01-30T13:59:30.663Z,2.00
2023-01-30T14:02:02.072Z,1.80
2023-01-30T14:04:40.983Z,1.85
2023-01-30T14:07:30.463Z,3.72
2023-01-30T14:10:13.044Z,2.35
2023-01-30T14:12:45.590Z,1.77
2023-01-30T14:15:15.083Z,1.80
2023-01-30T14:18:00.784Z,1.77
2023-01-30T14:20:29.950Z,2.58
2023-01-30T14:23:01.579Z,2.55
2023-01-30T14:25:28.248Z,2.03
2023-01-30T14:28:00.699Z,1.53
2023-01-30T14:30:45.679Z,2.33
2023-01-30T14:33:33.371Z,1.05
2023-01-30T14:36:02.580Z,1.70
2023-01-30T14:38:30.754Z,1.48
2023-01-30T14:41:02.902Z,1.77
2023-01-30T14:43:41.720Z,1.10
2023-01-30T14:46:28.163Z,1.73
2023-01-30T14:49:05.141Z,1.23
2023-01-30T14:51:40.447Z,1.55
2023-01-30T14:54:13.144Z,1.70
2023-01-30T14:56:51.584Z,2.95
2023-01-30T14:59:46.486Z,1.50
2023-01-30T15:02:12.975Z,1.80
2023-01-30T15:04:45.902Z,1.70
2023-01-30T15:07:17.813Z,1.23
2023-01-30T15:09:53.528Z,2.85
2023-01-30T15:12:38.908Z,1.95
2023-01-30T15:15:23.399Z,2.13
2023-01-30T15:18:17.643Z,2.63
2023-01-30T15:21:14.777Z,1.47
2023-01-30T15:23:56.144Z,3.03
2023-01-30T15:27:16.864Z,2.15
2023-01-30T15:30:04.387Z,1.80
2023-01-30T15:32:32.188Z,1.60
2023-01-30T15:35:01.574Z,2.13
2023-01-30T15:37:56.128Z,2.08
2023-01-30T15:40:28.051Z,2.28
2023-01-30T15:43:15.549Z,1.75
2023-01-30T15:45:47.985Z,2.35
2023-01-30T15:48:41.393Z,2.70
2023-01-30T15:51:15.499Z,1.80
2023-01-30T15:53:44.522Z,2.22
2023-01-30T15:56:19.208Z,2.50
2023-01-30T15:58:46.370Z,2.63
2023-01-30T16:01:19.454Z,2.17
2023-01-30T16:03:46.048Z,2.47
2023-01-30T16:06:32.977Z,1.50
2023-01-30T16:09:22.458Z,2.05
2023-01-30T16:11:49.740Z,2.28
2023-01-30T16:14:21.620Z,2.43
2023-01-30T16:16:56.352Z,1.95
2023-01-30T16:19:29.068Z,2.00
2023-01-30T16:22:00.323Z,2.22
2023-01-30T16:24:32.965Z,1.70
2023-01-30T16:27:03.301Z,1.63
2023-01-30T16:29:33.147Z,1.70
2023-01-30T16:32:00.071Z,2.60
2023-01-30T16:34:38.393Z,1.80
2023-01-30T16:37:20.238Z,2.08
2023-01-30T16:40:03.495Z,2.50
2023-01-30T16:42:31.060Z,2.42
2023-01-30T16:45:13.045Z,1.70
2023-01-30T16:47:40.624Z,1.98
2023-01-30T16:50:18.426Z,2.67
2023-01-30T16:52:51.038Z,2.87
2023-01-30T16:55:20.829Z,2.15
2023-01-30T16:57:57.057Z,2.72
2023-01-30T17:00:26.960Z,1.50
2023-01-30T17:02:58.022Z,2.13
2023-01-30T17:05:27.062Z,1.77
2023-01-30T17:07:55.874Z,1.98
2023-01-30T17:10:51.364Z,2.63
2023-01-30T17:13:35.020Z,3.42
2023-01-30T17:16:23.582Z,2.67
2023-01-30T17:18:52.219Z,2.50
2023-01-30T17:21:24.156Z,4.22
2023-01-30T17:24:03.440Z,2.53
2023-01-30T17:26:31.482Z,2.20
2023-01-30T17:28:58.497Z,3.25
2023-01-30T17:31:25.200Z,2.13
2023-01-30T17:33:51.836Z,2.25
2023-01-30T17:36:28.423Z,2.17
2023-01-30T17:38:55.814Z,2.78
2023-01-30T17:41:25.489Z,1.85
2023-01-30T17:43:52.076Z,1.80
2023-01-30T17:46:20.899Z,2.03
2023-01-30T17:48:48.358Z,2.45
2023-01-30T17:51:14.901Z,2.53
2023-01-30T17:53:41.957Z,1.92
2023-01-30T17:56:17.474Z,2.67
2023-01-30T17:58:44.125Z,1.90
2023-01-30T18:01:11.871Z,2.83
2023-01-30T18:03:38.408Z,2.67
2023-01-30T18:06:05.293Z,2.30
2023-01-30T18:08:31.752Z,3.23
2023-01-30T18:10:58.425Z,2.42
2023-01-30T18:13:24.920Z,2.42
2023-01-30T18:15:57.710Z,1.88
2023-01-30T18:18:24.254Z,4.18
2023-01-30T18:20:50.718Z,4.33
2023-01-30T18:23:17.271Z,2.88
2023-01-30T18:25:43.793Z,3.10
2023-01-30T18:28:11.389Z,2.88
2023-01-30T18:30:37.990Z,2.85
2023-01-30T18:33:04.555Z,2.30
2023-01-30T18:35:31.055Z,2.85
2023-01-30T18:38:02.389Z,3.03
2023-01-30T18:40:29.408Z,3.38
2023-01-30T18:42:55.989Z,2.15
2023-01-30T18:45:22.405Z,1.83
2023-01-30T18:47:48.945Z,2.28
2023-01-30T18:50:15.816Z,2.05
2023-01-30T18:52:42.357Z,1.98
2023-01-30T18:55:09.155Z,1.92
2023-01-30T18:57:35.652Z,1.83
2023-01-30T19:00:02.330Z,2.42
2023-01-30T19:02:30.498Z,3.25
2023-01-30T19:04:57.023Z,2.67
2023-01-30T19:07:23.561Z,1.98
2023-01-30T19:09:50.004Z,1.83
2023-01-30T19:12:35.043Z,1.50
2023-01-30T19:15:01.631Z,4.18
2023-01-30T19:17:28.223Z,3.13
2023-01-30T19:19:54.753Z,2.10
2023-01-30T19:22:21.294Z,1.40
2023-01-30T19:24:47.803Z,1.90
2023-01-30T19:27:14.517Z,1.70
2023-01-30T19:29:41.726Z,2.03
2023-01-30T19:32:09.348Z,1.83
2023-01-30T19:34:36.875Z,2.53
2023-01-30T19:37:03.372Z,2.50
2023-01-30T19:39:29.881Z,2.65
2023-01-30T19:41:56.429Z,3.15
2023-01-30T19:44:22.906Z,1.90
2023-01-30T19:46:49.515Z,1.90
2023-01-30T19:49:16.130Z,1.85
2023-01-30T19:51:42.661Z,1.88
2023-01-30T19:54:11.114Z,3.25
2023-01-30T19:56:40.874Z,2.80
2023-01-30T19:59:09.126Z,2.10
2023-01-30T20:01:39.786Z,1.88
2023-01-30T20:04:06.688Z,1.75
2023-01-30T20:06:34.496Z,2.25
2023-01-30T20:09:04.751Z,2.05
2023-01-30T20:11:33.105Z,2.07
2023-01-30T20:13:59.782Z,2.20
2023-01-30T20:16:27.570Z,2.72
2023-01-30T20:18:59.413Z,1.50
2023-01-30T20:21:27.445Z,2.65
2023-01-30T20:23:54.330Z,1.53
2023-01-30T20:26:24.317Z,1.83
2023-01-30T20:28:50.943Z,1.60
2023-01-30T20:31:20.702Z,2.05
2023-01-30T20:33:47.840Z,2.17
2023-01-30T20:36:18.628Z,1.90
2023-01-30T20:38:46.738Z,2.45
2023-01-30T20:41:18.815Z,1.73
2023-01-30T20:43:49.209Z,1.58
2023-01-30T20:46:18.897Z,1.90
2023-01-30T20:48:45.623Z,1.63
2023-01-30T20:51:14.543Z,1.95
2023-01-30T20:53:48.975Z,1.38
2023-01-30T20:56:15.677Z,1.55
2023-01-30T20:58:42.220Z,1.40
2023-01-30T21:01:17.858Z,1.17
2023-01-30T21:03:46.303Z,1.23
2023-01-30T21:06:12.928Z,1.20
2023-01-30T21:08:40.512Z,1.52
2023-01-30T21:11:08.194Z,1.27
2023-01-30T21:13:36.999Z,1.63
2023-01-30T21:16:16.195Z,1.02
2023-01-30T21:18:46.219Z,1.52
2023-01-30T21:21:23.510Z,1.52
2023-01-30T21:23:51.646Z,0.77
2023-01-30T21:26:19.254Z,1.47
2023-01-30T21:28:46.096Z,1.25
2023-01-30T21:31:14.238Z,1.42
2023-01-30T21:33:41.369Z,1.40
2023-01-30T21:36:08.930Z,1.45
2023-01-30T21:38:54.097Z,1.80
2023-01-30T21:41:41.744Z,0.80
2023-01-30T21:44:08.537Z,1.40
2023-01-30T21:46:38.911Z,1.00
2023-01-30T21:49:05.728Z,1.33
2023-01-30T21:51:32.973Z,1.33
2023-01-30T21:54:03.419Z,1.55
2023-01-30T21:56:30.855Z,1.70
2023-01-30T21:59:02.130Z,1.40
2023-01-30T22:01:29.592Z,1.10
2023-01-30T22:03:59.750Z,1.53
2023-01-30T22:06:26.378Z,1.80
2023-01-30T22:08:57.202Z,2.00
2023-01-30T22:11:24.843Z,1.48
2023-01-30T22:13:51.781Z,2.13
2023-01-30T22:16:21.333Z,1.87
2023-01-30T22:18:53.023Z,2.50
2023-01-30T22:21:21.879Z,1.55
2023-01-30T22:23:50.534Z,2.00
2023-01-30T22:26:19.396Z,1.42
2023-01-30T22:28:46.507Z,3.00
2023-01-30T22:31:18.222Z,1.17
2023-01-30T22:33:51.147Z,1.88
2023-01-30T22:36:18.805Z,1.80
2023-01-30T22:38:47.847Z,1.83
2023-01-30T22:41:20.902Z,1.53
2023-01-30T22:43:55.616Z,1.75
2023-01-30T22:46:33.792Z,1.23
2023-01-30T22:49:01.698Z,0.90
2023-01-30T22:51:35.879Z,1.70
2023-01-30T22:54:05.298Z,1.87
2023-01-30T22:56:44.501Z,1.70
2023-01-30T22:59:11.157Z,1.23
2023-01-30T23:01:40.062Z,1.40
2023-01-30T23:04:14.991Z,1.60
2023-01-30T23:06:42.550Z,1.40
2023-01-30T23:09:11.110Z,2.05
2023-01-30T23:11:40.768Z,1.30
2023-01-30T23:14:15.813Z,1.35
2023-01-30T23:16:44.010Z,1.60
2023-01-30T23:19:12.442Z,2.00
2023-01-30T23:21:42.091Z,2.13
2023-01-30T23:24:16.212Z,1.67
2023-01-30T23:26:45.297Z,1.90
2023-01-30T23:29:13.552Z,1.55
2023-01-30T23:31:41.057Z,2.03
2023-01-30T23:34:12.891Z,1.48
2023-01-30T23:36:39.930Z,1.35
2023-01-30T23:39:06.816Z,2.63
2023-01-30T23:41:35.680Z,1.45
2023-01-30T23:44:02.468Z,2.03
2023-01-30T23:46:33.994Z,2.60
2023-01-30T23:49:03.709Z,2.00
2023-01-30T23:51:32.369Z,2.05
2023-01-30T23:53:59.293Z,1.70
2023-01-30T23:56:27.991Z,1.73
2023-01-30T23:58:54.702Z,1.27
